Time;durP1;ratioP1;P1;durP2;ratioP2;P2;SDS_P1;SDS_P2;PMS_P1;PMS_P2;Temp;Humidity;BMP_temperature;BMP_pressure;BME280_temperature;BME280_humidity;BME280_pressure;Samples;Min_cycle;Max_cycle;Signal;HPM_P1;HPM_P2
2021/04/29 00:02:13;;;;;;;30.73;15.27;;;;;;;7.21;82.92;97532.03;5021127;28;20426;-63
2021/04/29 00:04:38;;;;;;;27.83;14.00;;;;;;;7.22;83.58;97540.53;5023344;28;20029;-63
2021/04/29 00:07:04;;;;;;;26.70;14.47;;;;;;;7.17;83.33;97534.72;5022529;28;20065;-63
2021/04/29 00:09:32;;;;;;;31.80;15.00;;;;;;;7.11;83.70;97538.25;5023411;28;22626;-63
2021/04/29 00:11:58;;;;;;;29.30;14.87;;;;;;;7.02;84.18;97535.06;5020892;28;20069;-63
2021/04/29 00:14:23;;;;;;;32.00;15.53;;;;;;;7.01;84.25;97526.56;5026951;28;20026;-63
2021/04/29 00:16:49;;;;;;;31.10;16.40;;;;;;;6.88;83.80;97526.00;5022675;28;20033;-63
2021/04/29 00:19:14;;;;;;;29.37;14.53;;;;;;;6.91;83.83;97539.56;5024418;28;20037;-62
2021/04/29 00:21:40;;;;;;;27.17;14.73;;;;;;;6.85;83.93;97543.06;5023202;28;20029;-62
2021/04/29 00:24:06;;;;;;;34.40;14.33;;;;;;;6.83;84.00;97542.28;5023545;28;20446;-62
2021/04/29 00:26:31;;;;;;;28.00;14.73;;;;;;;6.76;83.74;97531.38;5024244;28;20120;-63
2021/04/29 00:28:57;;;;;;;26.47;14.87;;;;;;;6.78;83.49;97534.75;5025673;28;20112;-63
2021/04/29 00:31:22;;;;;;;34.50;16.53;;;;;;;6.69;83.38;97529.00;5022661;28;20073;-63
2021/04/29 00:33:48;;;;;;;26.70;13.17;;;;;;;6.58;83.55;97526.66;5020107;28;20030;-64
2021/04/29 00:36:14;;;;;;;30.37;14.33;;;;;;;6.57;83.15;97535.19;5021627;28;20386;-63
2021/04/29 00:38:39;;;;;;;29.73;15.37;;;;;;;6.55;83.48;97533.53;5022129;28;20038;-63
2021/04/29 00:41:06;;;;;;;34.27;15.50;;;;;;;6.55;83.39;97536.06;5021724;28;20034;-63
2021/04/29 00:43:32;;;;;;;27.83;12.77;;;;;;;6.42;83.46;97532.94;5018019;28;20124;-63
2021/04/29 00:45:58;;;;;;;25.63;12.33;;;;;;;6.42;83.04;97532.94;5021473;28;20053;-63
2021/04/29 00:48:23;;;;;;;21.40;11.73;;;;;;;6.31;83.28;97532.34;5025488;28;20380;-63
2021/04/29 00:50:50;;;;;;;25.90;13.90;;;;;;;6.27;84.02;97535.81;5021077;28;20151;-63
2021/04/29 00:53:16;;;;;;;27.33;14.13;;;;;;;6.24;84.26;97530.75;5025528;28;20037;-62
2021/04/29 00:55:42;;;;;;;33.43;15.53;;;;;;;6.09;84.11;97541.25;5025339;28;20025;-62
2021/04/29 00:58:07;;;;;;;34.83;15.13;;;;;;;6.04;83.73;97532.84;5026603;28;20030;-62
2021/04/29 01:00:34;;;;;;;29.53;14.07;;;;;;;5.98;84.19;97536.38;5024768;28;20029;-62
2021/04/29 01:03:16;;;;;;;30.40;14.50;;;;;;;5.91;84.55;97530.53;5021235;28;20041;-61
2021/04/29 01:05:52;;;;;;;31.90;15.33;;;;;;;5.85;84.28;97539.97;5020518;28;20037;-62
2021/04/29 01:08:36;;;;;;;26.67;14.00;;;;;;;5.77;84.57;97531.63;5023191;28;20034;-62
2021/04/29 01:11:06;;;;;;;29.30;13.80;;;;;;;5.75;84.01;97529.13;5022800;28;20081;-62
2021/04/29 01:13:35;;;;;;;25.60;13.73;;;;;;;5.70;84.55;97535.13;5023937;28;20148;-62
2021/04/29 01:16:01;;;;;;;22.90;13.63;;;;;;;5.66;84.40;97525.88;5021105;28;20107;-62
2021/04/29 01:18:26;;;;;;;26.07;13.53;;;;;;;5.51;84.28;97510.06;5025551;28;20022;-62
2021/04/29 01:21:12;;;;;;;23.87;12.33;;;;;;;5.62;83.69;97524.25;5022964;28;20039;-62
2021/04/29 01:23:41;;;;;;;32.03;13.70;;;;;;;5.58;84.27;97532.81;5022135;28;20116;-62
2021/04/29 01:26:40;;;;;;;24.27;12.37;;;;;;;5.58;84.27;97522.63;5025285;28;20033;-63
2021/04/29 01:29:09;;;;;;;21.10;11.67;;;;;;;5.56;83.97;97526.94;5026604;28;20056;-62
2021/04/29 01:31:36;;;;;;;35.03;15.73;;;;;;;5.51;84.07;97530.38;5032735;28;20064;-62
2021/04/29 01:34:05;;;;;;;32.17;14.20;;;;;;;5.43;84.45;97533.91;5028921;28;20025;-62
2021/04/29 01:36:32;;;;;;;28.80;12.90;;;;;;;5.37;84.70;97539.09;5025126;28;20109;-62
2021/04/29 01:38:59;;;;;;;25.77;13.33;;;;;;;5.34;85.20;97536.59;5025864;28;20273;-62
2021/04/29 01:41:26;;;;;;;23.63;12.20;;;;;;;5.34;85.48;97540.00;5028595;28;20033;-62
2021/04/29 01:43:53;;;;;;;27.60;13.53;;;;;;;5.36;85.35;97537.41;5026161;28;20121;-62
2021/04/29 01:46:19;;;;;;;19.80;11.33;;;;;;;5.26;85.25;97534.16;5025291;28;20043;-62
2021/04/29 01:48:45;;;;;;;26.53;12.30;;;;;;;5.21;85.44;97530.88;5026389;28;20033;-63
2021/04/29 01:51:11;;;;;;;24.27;11.90;;;;;;;5.20;85.38;97529.19;5026952;28;20029;-62
2021/04/29 01:53:38;;;;;;;30.87;13.90;;;;;;;5.22;85.23;97524.09;5026928;28;20056;-62
2021/04/29 01:56:04;;;;;;;34.20;14.30;;;;;;;5.16;85.65;97529.25;5025549;28;20245;-62
2021/04/29 01:58:29;;;;;;;27.77;12.23;;;;;;;5.15;85.58;97528.41;5025613;28;20132;-62
2021/04/29 02:00:55;;;;;;;30.57;13.73;;;;;;;5.13;85.98;97517.44;5025211;28;20030;-62
2021/04/29 02:03:21;;;;;;;23.80;11.97;;;;;;;5.08;86.18;97526.84;5024960;28;20034;-62
2021/04/29 02:05:46;;;;;;;28.93;12.87;;;;;;;5.05;85.69;97525.16;5026493;28;20049;-62
2021/04/29 02:08:11;;;;;;;26.57;11.90;;;;;;;5.07;85.85;97517.53;5033702;28;20033;-62
2021/04/29 02:10:37;;;;;;;28.00;13.47;;;;;;;5.02;85.84;97521.84;5023266;28;20057;-62
2021/04/29 02:13:08;;;;;;;29.80;14.43;;;;;;;5.11;85.69;97519.16;5027175;28;20041;-62
2021/04/29 02:15:39;;;;;;;27.17;11.77;;;;;;;5.07;85.99;97525.16;5026362;28;20063;-62
2021/04/29 02:18:12;;;;;;;23.80;10.90;;;;;;;5.02;85.72;97526.91;5026023;28;20099;-62
2021/04/29 02:20:41;;;;;;;24.37;11.60;;;;;;;4.99;86.17;97534.59;5026098;28;20037;-62
2021/04/29 02:23:10;;;;;;;23.73;11.27;;;;;;;4.99;85.83;97527.81;5027072;28;20095;-62
2021/04/29 02:25:36;;;;;;;25.90;12.53;;;;;;;4.92;86.23;97522.84;5024811;28;20088;-62
2021/04/29 02:28:02;;;;;;;23.77;11.37;;;;;;;4.82;86.21;97516.22;5024698;28;20052;-62
2021/04/29 02:30:28;;;;;;;32.87;13.77;;;;;;;4.86;86.42;97526.31;5025840;28;20030;-62
2021/04/29 02:32:53;;;;;;;26.13;12.83;;;;;;;4.88;85.83;97536.47;5025025;28;20361;-62
2021/04/29 02:35:19;;;;;;;23.23;12.13;;;;;;;4.85;86.10;97532.25;5024651;28;20041;-62
2021/04/29 02:37:47;;;;;;;20.40;11.40;;;;;;;4.84;85.84;97534.78;5023577;28;20044;-62
2021/04/29 02:40:14;;;;;;;24.70;12.43;;;;;;;4.81;85.82;97539.91;5027165;28;20060;-63
2021/04/29 02:42:40;;;;;;;23.17;12.10;;;;;;;4.78;85.85;97535.75;5025813;28;20045;-62
2021/04/29 02:45:07;;;;;;;25.10;12.47;;;;;;;4.78;86.00;97532.34;5029621;28;20364;-62
2021/04/29 02:47:33;;;;;;;25.43;12.40;;;;;;;4.74;86.05;97533.25;5027703;28;20034;-62
2021/04/29 02:49:59;;;;;;;22.63;11.60;;;;;;;4.87;86.38;97537.31;5026041;28;20048;-62
2021/04/29 02:52:24;;;;;;;22.20;11.03;;;;;;;4.89;86.36;97538.13;5029176;28;20044;-62
2021/04/29 02:54:50;;;;;;;26.27;12.57;;;;;;;4.86;86.63;97539.00;5027164;28;20026;-62
2021/04/29 02:57:22;;;;;;;21.43;11.37;;;;;;;4.91;87.09;97542.31;5023343;28;20356;-62
2021/04/29 02:59:48;;;;;;;28.20;13.13;;;;;;;4.86;86.80;97539.00;5025585;28;20030;-62
2021/04/29 03:02:14;;;;;;;26.70;12.33;;;;;;;4.81;87.05;97535.69;5023756;28;20685;-62
2021/04/29 03:04:40;;;;;;;25.77;12.13;;;;;;;4.83;86.91;97546.69;5025709;28;20283;-62
2021/04/29 03:07:05;;;;;;;31.30;12.83;;;;;;;4.88;87.08;97544.88;5023880;28;20037;-62
2021/04/29 03:09:31;;;;;;;27.57;12.63;;;;;;;4.88;86.94;97546.63;5022810;28;20038;-62
2021/04/29 03:11:56;;;;;;;23.07;12.37;;;;;;;4.85;86.99;97533.94;5023243;28;20046;-62
2021/04/29 03:14:21;;;;;;;22.30;11.83;;;;;;;4.82;87.30;97539.91;5021633;28;20037;-62
2021/04/29 03:16:47;;;;;;;24.60;10.73;;;;;;;4.83;87.60;97539.06;5025858;28;20379;-62
2021/04/29 03:19:12;;;;;;;24.10;13.53;;;;;;;4.97;87.28;97537.13;5027255;28;20442;-61
2021/04/29 03:21:38;;;;;;;35.70;14.07;;;;;;;5.07;86.47;97537.84;5022830;28;20034;-62
2021/04/29 03:24:03;;;;;;;28.80;12.53;;;;;;;5.04;85.52;97537.91;5021265;28;20046;-63
2021/04/29 03:26:29;;;;;;;27.77;13.67;;;;;;;4.99;85.29;97540.50;5024304;28;20037;-62
2021/04/29 03:28:54;;;;;;;24.20;12.20;;;;;;;4.97;85.34;97546.47;5025220;28;20037;-62
2021/04/29 03:31:20;;;;;;;24.50;11.33;;;;;;;4.96;85.73;97554.97;5022605;28;20037;-62
2021/04/29 03:33:45;;;;;;;28.13;13.67;;;;;;;4.90;86.24;97553.34;5024926;28;20045;-63
2021/04/29 03:36:11;;;;;;;28.23;13.60;;;;;;;4.84;86.57;97550.88;5023239;28;20068;-62
2021/04/29 03:38:36;;;;;;;31.87;14.57;;;;;;;4.83;87.04;97553.44;5022677;28;20061;-62
2021/04/29 03:41:01;;;;;;;25.60;11.90;;;;;;;4.77;87.18;97550.97;5025594;28;20112;-62
2021/04/29 03:43:27;;;;;;;27.73;12.63;;;;;;;4.72;87.21;97547.66;5023844;28;20076;-62
2021/04/29 03:45:52;;;;;;;44.33;16.70;;;;;;;4.73;86.85;97556.97;5018765;28;20124;-62
2021/04/29 03:48:17;;;;;;;26.03;12.60;;;;;;;4.73;87.28;97560.34;5021579;28;20033;-63
2021/04/29 03:50:43;;;;;;;37.43;14.40;;;;;;;4.69;86.78;97558.72;5023765;28;20044;-63
2021/04/29 03:53:08;;;;;;;24.40;12.43;;;;;;;4.72;87.26;97565.44;5021678;28;20034;-63
2021/04/29 03:55:34;;;;;;;24.93;12.60;;;;;;;4.71;87.10;97559.50;5024389;28;20029;-62
2021/04/29 03:58:00;;;;;;;25.10;11.57;;;;;;;4.73;86.84;97562.88;5023241;28;20098;-62
2021/04/29 04:00:25;;;;;;;30.93;12.93;;;;;;;4.75;87.18;97561.19;5022196;28;20036;-61
2021/04/29 04:02:50;;;;;;;35.47;14.37;;;;;;;4.83;87.12;97563.59;5021953;28;20284;-62
2021/04/29 04:05:16;;;;;;;26.47;12.17;;;;;;;4.85;86.70;97570.31;5029460;28;20025;-62
2021/04/29 04:07:41;;;;;;;28.63;13.20;;;;;;;4.89;87.18;97571.13;5026465;28;20056;-62
2021/04/29 04:10:08;;;;;;;21.13;10.77;;;;;;;4.97;87.46;97574.38;5025046;28;20119;-62
2021/04/29 04:12:34;;;;;;;28.97;13.03;;;;;;;5.14;87.04;97572.44;5025764;28;20033;-62
2021/04/29 04:14:59;;;;;;;26.07;12.83;;;;;;;5.26;86.06;97574.00;5025175;28;20279;-63
2021/04/29 04:17:25;;;;;;;23.87;12.53;;;;;;;5.32;85.89;97577.28;5020919;28;20037;-62
2021/04/29 04:19:50;;;;;;;27.17;13.13;;;;;;;5.38;85.68;97572.09;5023895;28;20061;-63
2021/04/29 04:22:15;;;;;;;25.10;13.17;;;;;;;5.40;85.23;97578.00;5029539;28;20026;-63
2021/04/29 04:24:41;;;;;;;24.50;12.97;;;;;;;5.47;85.37;97591.47;5012046;28;20095;-63
2021/04/29 04:27:06;;;;;;;22.10;11.67;;;;;;;5.55;85.18;97596.41;5024958;28;20420;-62
2021/04/29 04:29:33;;;;;;;27.77;12.50;;;;;;;5.72;84.46;97591.91;5023525;28;20087;-63
2021/04/29 04:31:59;;;;;;;23.03;12.20;;;;;;;5.79;84.32;97598.56;5025349;28;20037;-62
2021/04/29 04:34:24;;;;;;;23.67;10.80;;;;;;;5.93;84.20;97601.75;5022588;28;20367;-62
2021/04/29 04:36:50;;;;;;;31.73;13.47;;;;;;;5.95;83.65;97600.84;5021426;28;20120;-63
2021/04/29 04:39:15;;;;;;;22.00;12.37;;;;;;;6.08;83.55;97603.16;5023641;28;20080;-63
2021/04/29 04:41:40;;;;;;;25.17;12.27;;;;;;;6.11;83.41;97606.50;5024423;28;20417;-63
2021/04/29 04:44:06;;;;;;;26.77;13.77;;;;;;;6.22;83.56;97611.41;5023013;28;20044;-63
2021/04/29 04:46:31;;;;;;;23.43;11.53;;;;;;;6.30;83.58;97605.31;5026774;28;20113;-63
2021/04/29 04:48:57;;;;;;;21.17;10.80;;;;;;;6.41;83.04;97611.03;5022877;28;20032;-63
2021/04/29 04:51:22;;;;;;;29.93;12.53;;;;;;;6.54;82.43;97613.31;5024131;28;20116;-63
2021/04/29 04:53:48;;;;;;;27.03;12.30;;;;;;;6.63;82.45;97618.25;5022739;28;20025;-63
2021/04/29 04:56:14;;;;;;;29.37;14.33;;;;;;;6.68;82.70;97606.25;5022810;28;20040;-64
2021/04/29 04:58:39;;;;;;;24.33;12.13;;;;;;;6.84;82.13;97603.38;5026585;28;20149;-63
2021/04/29 05:01:04;;;;;;;26.47;12.63;;;;;;;6.95;82.17;97605.72;5026107;28;20037;-63
2021/04/29 05:03:30;;;;;;;30.13;15.33;;;;;;;7.05;81.25;97601.22;5029207;28;20071;-63
2021/04/29 05:05:55;;;;;;;30.37;13.73;;;;;;;7.12;81.96;97601.09;5029856;28;20029;-63
2021/04/29 05:08:21;;;;;;;24.03;12.80;;;;;;;7.23;81.74;97604.22;5041417;28;20034;-63
2021/04/29 05:10:46;;;;;;;28.30;13.80;;;;;;;7.38;81.40;97595.41;5030640;28;20436;-63
2021/04/29 05:13:15;;;;;;;36.70;17.60;;;;;;;7.46;81.31;97593.53;5026108;28;20037;-62
2021/04/29 05:15:40;;;;;;;40.80;19.63;;;;;;;7.53;82.06;97601.84;5027113;28;20025;-63
2021/04/29 05:18:06;;;;;;;28.07;13.80;;;;;;;7.59;82.08;97604.28;5027178;28;20033;-63
2021/04/29 05:20:31;;;;;;;32.60;15.50;;;;;;;7.67;81.55;97607.47;5025453;28;20079;-62
2021/04/29 05:22:58;;;;;;;25.87;13.67;;;;;;;7.67;81.13;97618.53;5027950;28;20034;-63
2021/04/29 05:25:23;;;;;;;26.73;13.87;;;;;;;7.85;80.82;97607.00;5028389;28;20151;-62
2021/04/29 05:27:52;;;;;;;25.80;12.53;;;;;;;8.14;79.38;97612.25;5025674;28;20112;-63
2021/04/29 05:30:19;;;;;;;22.17;11.80;;;;;;;8.27;78.82;97611.03;5025166;28;20053;-62
2021/04/29 05:32:46;;;;;;;30.77;14.60;;;;;;;8.33;78.32;97620.28;5027910;28;20033;-62
2021/04/29 05:35:12;;;;;;;24.23;13.17;;;;;;;8.31;78.50;97621.22;5027473;28;20049;-61
2021/04/29 05:37:37;;;;;;;30.50;13.73;;;;;;;8.46;78.12;97628.44;5027437;28;20026;-62
2021/04/29 05:40:03;;;;;;;28.70;14.33;;;;;;;8.72;78.13;97620.94;5030522;28;20112;-62
2021/04/29 05:42:29;;;;;;;37.27;12.23;;;;;;;8.97;77.13;97626.19;5028609;28;20025;-63
2021/04/29 05:44:55;;;;;;;27.10;13.27;;;;;;;9.00;77.72;97619.25;5031390;28;20060;-64
2021/04/29 05:47:20;;;;;;;23.40;12.53;;;;;;;9.11;76.92;97618.94;5028056;28;20563;-63
2021/04/29 05:49:46;;;;;;;30.60;14.30;;;;;;;9.12;78.36;97621.44;5027842;28;20045;-64
2021/04/29 05:52:11;;;;;;;32.90;14.83;;;;;;;9.14;78.19;97622.25;5025900;28;20056;-67
2021/04/29 05:54:38;;;;;;;26.17;14.13;;;;;;;9.13;77.89;97628.25;5025466;28;20113;-66
2021/04/29 05:57:05;;;;;;;35.97;15.23;;;;;;;9.20;78.73;97625.50;5030091;28;20033;-62
2021/04/29 05:59:30;;;;;;;35.37;16.43;;;;;;;9.25;78.39;97628.78;5027823;28;20039;-62
2021/04/29 06:01:56;;;;;;;36.97;16.73;;;;;;;9.33;78.40;97627.66;5025548;28;20039;-62
2021/04/29 06:04:22;;;;;;;34.27;15.50;;;;;;;9.36;77.98;97626.72;5026192;28;20037;-61
2021/04/29 06:06:48;;;;;;;36.00;16.87;;;;;;;9.37;78.77;97633.53;5031923;28;20062;-61
2021/04/29 06:09:15;;;;;;;44.23;17.43;;;;;;;9.58;77.96;97638.00;5028111;28;20058;-62
2021/04/29 06:11:41;;;;;;;36.90;16.80;;;;;;;9.52;77.81;97648.41;5023046;28;20042;-62
2021/04/29 06:14:06;;;;;;;36.30;17.80;;;;;;;9.51;78.20;97656.94;5027505;28;20402;-62
2021/04/29 06:16:32;;;;;;;32.67;16.87;;;;;;;9.53;77.17;97661.16;5027210;28;20155;-62
2021/04/29 06:18:57;;;;;;;28.13;16.30;;;;;;;9.66;76.93;97666.72;5023948;28;20120;-62
2021/04/29 06:21:23;;;;;;;28.30;14.83;;;;;;;9.78;76.55;97658.66;5028587;28;20029;-61
2021/04/29 06:23:48;;;;;;;28.53;15.07;;;;;;;9.59;77.62;97662.66;5025031;28;20057;-62
2021/04/29 06:26:13;;;;;;;31.90;15.93;;;;;;;9.74;76.96;97662.22;5026951;28;20326;-61
2021/04/29 06:28:39;;;;;;;30.57;15.67;;;;;;;9.72;77.72;97660.59;5025177;28;20379;-62
2021/04/29 06:31:04;;;;;;;35.27;16.50;;;;;;;9.63;78.73;97654.84;5025618;28;20080;-62
2021/04/29 06:33:30;;;;;;;37.17;18.07;;;;;;;9.78;77.48;97655.25;5030481;28;20065;-61
2021/04/29 06:35:55;;;;;;;36.90;18.83;;;;;;;9.88;77.95;97651.53;5028230;28;20307;-61
2021/04/29 06:38:21;;;;;;;38.97;18.23;;;;;;;10.13;77.25;97657.53;5024614;28;20076;-62
2021/04/29 06:40:47;;;;;;;31.73;16.63;;;;;;;10.34;75.45;97668.84;5025260;28;20161;-62
2021/04/29 06:43:12;;;;;;;29.00;15.97;;;;;;;10.60;75.33;97673.06;5029658;28;20048;-61
2021/04/29 06:45:40;;;;;;;28.07;15.57;;;;;;;10.81;74.72;97675.72;5025701;28;20025;-62
2021/04/29 06:48:07;;;;;;;31.83;15.97;;;;;;;10.91;73.22;97681.34;5026266;28;20025;-61
2021/04/29 06:50:34;;;;;;;35.73;17.57;;;;;;;11.01;74.03;97680.13;5026107;28;20044;-61
2021/04/29 06:52:59;;;;;;;31.67;17.60;;;;;;;11.22;73.01;97670.81;5026172;28;20123;-62
2021/04/29 06:55:25;;;;;;;31.20;15.52;;;;;;;11.46;72.06;97675.88;5024234;28;20410;-61
2021/04/29 06:57:50;;;;;;;34.88;15.57;;;;;;;11.51;71.45;97682.56;5026230;28;20041;-62
2021/04/29 07:00:16;;;;;;;30.17;15.77;;;;;;;11.71;70.98;97680.09;5025472;28;20041;-62
2021/04/29 07:02:41;;;;;;;29.73;15.18;;;;;;;11.69;70.91;97663.91;5026975;28;20287;-62
2021/04/29 07:05:07;;;;;;;29.73;15.65;;;;;;;11.92;69.77;97670.75;5024147;28;20061;-63
2021/04/29 07:07:32;;;;;;;31.48;16.38;;;;;;;11.92;69.71;97675.88;5025611;28;20377;-62
2021/04/29 07:09:58;;;;;;;48.83;38.60;;;;;;;12.00;68.98;97666.13;5028353;28;20154;-62
2021/04/29 07:12:23;;;;;;;30.05;14.88;;;;;;;12.21;68.38;97662.69;5024850;28;20041;-62
2021/04/29 07:14:49;;;;;;;26.75;14.02;;;;;;;12.11;67.97;97669.09;5027556;28;20112;-62
2021/04/29 07:17:14;;;;;;;26.42;15.68;;;;;;;12.31;67.40;97672.50;5028102;28;20322;-63
2021/04/29 07:19:40;;;;;;;28.27;15.35;;;;;;;12.41;67.74;97667.00;5026527;28;20161;-61
2021/04/29 07:22:05;;;;;;;34.97;16.17;;;;;;;12.43;67.42;97671.19;5024187;28;20030;-61
2021/04/29 07:24:31;;;;;;;26.88;15.38;;;;;;;12.50;67.84;97672.59;5022892;28;20079;-61
2021/04/29 07:26:56;;;;;;;33.50;18.20;;;;;;;12.65;67.40;97673.66;5025314;28;20132;-62
2021/04/29 07:29:22;;;;;;;26.90;14.45;;;;;;;12.82;66.68;97674.63;5025468;28;20030;-62
2021/04/29 07:31:48;;;;;;;29.38;15.43;;;;;;;12.93;67.28;97673.34;5024612;28;20038;-60
2021/04/29 07:34:13;;;;;;;28.98;17.98;;;;;;;12.98;66.23;97676.53;5026791;28;20260;-60
2021/04/29 07:36:39;;;;;;;26.88;15.68;;;;;;;13.22;66.57;97678.91;5026548;28;20033;-62
2021/04/29 07:39:05;;;;;;;29.77;16.40;;;;;;;13.38;65.81;97681.59;5024240;28;20402;-61
2021/04/29 07:41:31;;;;;;;27.58;15.68;;;;;;;13.52;64.84;97679.25;5027240;28;20052;-62
2021/04/29 07:43:58;;;;;;;26.42;15.10;;;;;;;13.62;63.39;97684.81;5025795;28;20030;-62
2021/04/29 07:46:24;;;;;;;30.30;16.40;;;;;;;13.72;63.39;97671.41;5025602;28;20029;-62
2021/04/29 07:48:49;;;;;;;25.67;15.70;;;;;;;14.02;62.68;97668.28;5028376;28;20034;-61
2021/04/29 07:51:15;;;;;;;31.42;16.80;;;;;;;13.89;62.49;97672.38;5025938;28;20159;-63
2021/04/29 07:53:40;;;;;;;26.75;16.75;;;;;;;13.93;63.12;97676.47;5026384;28;20072;-62
2021/04/29 07:56:06;;;;;;;27.00;15.60;;;;;;;13.92;63.07;97682.53;5025088;28;20033;-62
2021/04/29 07:58:31;;;;;;;25.45;15.48;;;;;;;13.99;62.45;97674.44;5026261;28;20038;-62
2021/04/29 08:00:57;;;;;;;31.05;17.13;;;;;;;14.17;61.63;97683.03;5027305;28;20058;-62
2021/04/29 08:03:22;;;;;;;29.88;17.75;;;;;;;14.23;62.29;97680.16;5024573;28;20083;-62
2021/04/29 08:05:49;;;;;;;29.15;16.38;;;;;;;14.23;61.30;97680.16;5024713;28;20032;-62
2021/04/29 08:08:14;;;;;;;31.23;17.85;;;;;;;14.44;61.44;97683.44;5021491;28;20026;-62
2021/04/29 08:10:41;;;;;;;27.92;15.25;;;;;;;14.61;60.37;97686.84;5026705;28;20389;-61
2021/04/29 08:13:09;;;;;;;26.42;16.73;;;;;;;14.78;60.78;97685.16;5025126;28;20052;-62
2021/04/29 08:15:35;;;;;;;29.55;16.92;;;;;;;14.88;61.12;97691.53;5028848;28;20056;-62
2021/04/29 08:18:00;;;;;;;250.20;233.75;;;;;;;14.85;60.58;97689.91;5031324;28;20033;-62
2021/04/29 08:20:26;;;;;;;198.18;186.73;;;;;;;14.85;60.93;97686.53;5023727;28;20421;-62
2021/04/29 08:22:51;;;;;;;60.97;50.83;;;;;;;14.99;60.35;97695.22;5026113;28;20061;-62
2021/04/29 08:25:17;;;;;;;44.65;39.50;;;;;;;15.03;61.71;97696.72;5025951;28;20398;-61
2021/04/29 08:27:42;;;;;;;49.20;32.00;;;;;;;15.25;60.48;97701.63;5025241;28;20059;-62
2021/04/29 08:30:08;;;;;;;39.38;34.95;;;;;;;15.26;59.30;97703.28;5022068;28;20365;-61
2021/04/29 08:32:34;;;;;;;52.08;47.05;;;;;;;15.18;59.38;97700.28;5021652;28;20025;-61
2021/04/29 08:34:59;;;;;;;46.30;35.20;;;;;;;15.39;58.33;97698.31;5031960;28;20041;-61
2021/04/29 08:37:25;;;;;;;37.95;23.20;;;;;;;15.52;59.19;97700.19;5031757;28;20054;-61
2021/04/29 08:39:50;;;;;;;45.55;23.30;;;;;;;15.71;58.67;97705.19;5029881;28;20037;-62
2021/04/29 08:42:16;;;;;;;38.65;22.73;;;;;;;15.61;60.01;97687.69;5032465;28;20040;-62
2021/04/29 08:44:42;;;;;;;33.65;17.35;;;;;;;15.78;59.26;97705.69;5034102;28;20044;-62
2021/04/29 08:47:08;;;;;;;35.13;31.27;;;;;;;15.94;58.80;97707.34;5032844;28;20457;-62
2021/04/29 08:49:35;;;;;;;37.03;26.23;;;;;;;15.95;58.39;97708.19;5031096;28;20037;-63
2021/04/29 08:52:02;;;;;;;43.80;24.15;;;;;;;16.00;57.53;97698.41;5031757;28;20044;-63
2021/04/29 08:54:28;;;;;;;32.10;18.45;;;;;;;15.40;60.28;97721.44;5037858;28;20021;-63
2021/04/29 08:56:54;;;;;;;34.95;18.02;;;;;;;15.27;61.37;97717.88;5029887;28;20056;-63
2021/04/29 08:59:19;;;;;;;33.08;17.52;;;;;;;15.57;58.81;97720.63;5033001;28;20029;-64
2021/04/29 09:01:46;;;;;;;34.67;17.92;;;;;;;16.05;57.89;97724.84;5035676;28;20175;-62
2021/04/29 09:04:14;;;;;;;32.45;19.88;;;;;;;15.92;57.15;97719.53;5028357;28;20029;-60
2021/04/29 09:06:43;;;;;;;36.50;19.00;;;;;;;16.08;57.47;97726.44;5031298;28;20032;-62
2021/04/29 09:09:09;;;;;;;40.45;19.58;;;;;;;16.41;56.63;97721.97;5030704;28;20477;-63
2021/04/29 09:11:46;;;;;;;38.75;19.13;;;;;;;16.63;58.66;97721.59;5029782;28;20088;-64
2021/04/29 09:14:11;;;;;;;32.00;16.52;;;;;;;16.81;55.82;97723.94;5030910;28;20046;-64
2021/04/29 09:16:42;;;;;;;33.58;16.95;;;;;;;16.90;55.10;97715.63;5030262;28;20026;-63
2021/04/29 09:19:21;;;;;;;33.38;16.27;;;;;;;17.06;54.59;97710.38;5030574;28;20084;-63
2021/04/29 09:21:47;;;;;;;33.13;17.13;;;;;;;16.96;54.55;97711.03;5031114;28;20053;-63
2021/04/29 09:24:13;;;;;;;33.65;18.80;;;;;;;16.46;55.59;97705.22;5033047;28;20072;-63
2021/04/29 09:26:40;;;;;;;36.53;18.33;;;;;;;16.48;55.51;97712.09;5033735;28;20045;-63
2021/04/29 09:29:10;;;;;;;32.58;16.33;;;;;;;16.81;54.68;97720.50;5029997;28;20026;-64
2021/04/29 09:31:44;;;;;;;31.67;17.95;;;;;;;16.97;54.50;97718.72;5031488;28;20037;-64
2021/04/29 09:34:10;;;;;;;27.63;15.10;;;;;;;17.33;53.91;97720.84;5034373;28;20091;-63
2021/04/29 09:36:46;;;;;;;35.28;16.73;;;;;;;17.54;53.56;97716.09;5029281;28;20309;-62
2021/04/29 09:39:14;;;;;;;29.15;16.10;;;;;;;17.54;53.61;97719.53;5030045;28;20040;-62
2021/04/29 09:41:45;;;;;;;32.60;16.63;;;;;;;17.84;52.93;97711.63;5031470;28;20030;-63
2021/04/29 09:44:13;;;;;;;35.28;17.00;;;;;;;17.98;51.71;97716.81;5030161;28;20067;-64
2021/04/29 09:46:50;;;;;;;26.10;14.00;;;;;;;18.26;51.62;97715.84;5029462;28;20017;-63
2021/04/29 09:49:32;;;;;;;27.15;16.05;;;;;;;18.37;50.56;97717.78;5028982;28;20029;-63
2021/04/29 09:52:00;;;;;;;24.90;15.50;;;;;;;18.19;53.34;97712.84;5026293;28;20030;-62
2021/04/29 09:54:31;;;;;;;31.15;15.75;;;;;;;18.28;51.77;97724.38;5028929;28;20040;-63
2021/04/29 09:57:03;;;;;;;27.20;15.77;;;;;;;18.52;53.88;97717.63;5025923;28;20439;-63
2021/04/29 09:59:29;;;;;;;27.70;15.73;;;;;;;18.45;52.64;97718.09;5028427;28;20025;-63
2021/04/29 10:01:56;;;;;;;29.15;15.77;;;;;;;18.65;50.68;97715.06;5028233;28;20029;-63
2021/04/29 10:04:23;;;;;;;32.03;17.27;;;;;;;18.49;51.07;97714.38;5026458;28;20060;-63
2021/04/29 10:06:49;;;;;;;31.65;14.85;;;;;;;18.57;49.92;97704.34;5026295;28;20324;-63
2021/04/29 10:09:15;;;;;;;27.50;14.80;;;;;;;18.60;50.74;97709.34;5028532;28;20502;-64
2021/04/29 10:11:43;;;;;;;30.00;13.77;;;;;;;18.91;49.57;97708.13;5028600;28;20066;-62
2021/04/29 10:14:11;;;;;;;29.15;15.55;;;;;;;18.94;49.20;97702.72;5028669;28;20052;-63
2021/04/29 10:16:38;;;;;;;23.05;14.32;;;;;;;19.02;49.02;97703.88;5026869;28;20037;-62
2021/04/29 10:19:04;;;;;;;23.73;14.20;;;;;;;19.25;50.18;97697.09;5028409;28;20047;-62
2021/04/29 10:21:30;;;;;;;27.65;15.32;;;;;;;19.13;48.53;97696.19;5027793;28;20033;-62
2021/04/29 10:23:56;;;;;;;31.83;16.67;;;;;;;19.27;48.70;97703.00;5027777;28;20036;-62
2021/04/29 10:26:25;;;;;;;27.85;15.18;;;;;;;19.12;50.05;97704.06;5028324;28;20029;-62
2021/04/29 10:28:57;;;;;;;27.70;14.95;;;;;;;19.27;50.14;97699.59;5031111;28;20109;-62
2021/04/29 10:31:26;;;;;;;30.80;16.23;;;;;;;19.35;49.06;97707.72;5027480;28;20157;-63
2021/04/29 10:33:54;;;;;;;27.00;16.00;;;;;;;19.52;48.71;97702.19;5026145;28;20040;-63
2021/04/29 10:36:21;;;;;;;29.10;16.45;;;;;;;19.53;48.25;97706.44;5029902;28;20032;-63
2021/04/29 10:38:47;;;;;;;25.67;14.73;;;;;;;19.43;48.61;97701.06;5026001;28;20036;-63
2021/04/29 10:41:30;;;;;;;26.50;14.02;;;;;;;19.82;49.25;97702.63;5028231;28;20036;-62
2021/04/29 10:44:07;;;;;;;25.92;16.05;;;;;;;19.71;47.51;97705.16;5031352;28;20108;-62
2021/04/29 10:46:33;;;;;;;26.50;14.82;;;;;;;19.55;49.11;97699.38;5027697;28;20053;-62
2021/04/29 10:49:00;;;;;;;30.48;14.88;;;;;;;19.57;48.08;97708.72;5029393;28;20096;-62
2021/04/29 10:51:34;;;;;;;27.58;12.93;;;;;;;19.66;48.03;97720.25;5030183;28;20021;-64
2021/04/29 10:54:08;;;;;;;26.77;13.17;;;;;;;19.69;46.85;97722.63;5029163;28;20037;-64
2021/04/29 10:56:34;;;;;;;23.65;13.70;;;;;;;19.95;46.30;97715.59;5026292;28;20279;-62
2021/04/29 10:59:11;;;;;;;22.85;13.27;;;;;;;20.26;45.89;97714.22;5027638;28;20033;-63
2021/04/29 11:01:44;;;;;;;25.10;13.75;;;;;;;20.44;45.50;97713.75;5026233;28;20060;-63
2021/04/29 11:04:21;;;;;;;23.08;13.02;;;;;;;20.47;45.23;97713.50;5025063;28;20036;-63
2021/04/29 11:06:49;;;;;;;26.42;13.85;;;;;;;20.51;44.85;97703.69;5028415;28;20010;-63
2021/04/29 11:09:20;;;;;;;28.55;14.32;;;;;;;20.62;44.72;97695.94;5024807;28;20380;-63
2021/04/29 11:11:46;;;;;;;21.98;13.30;;;;;;;20.92;44.10;97693.63;5025706;28;20053;-63
2021/04/29 11:14:17;;;;;;;27.13;14.75;;;;;;;21.10;43.58;97703.59;5027630;28;20053;-63
2021/04/29 11:16:53;;;;;;;22.15;12.60;;;;;;;21.32;42.72;97696.66;5027902;28;20347;-64
2021/04/29 11:19:39;;;;;;;21.75;11.88;;;;;;;21.41;42.90;97695.94;5026217;28;20410;-63
2021/04/29 11:22:07;;;;;;;29.77;21.60;;;;;;;21.50;43.24;97699.63;5028880;28;20025;-63